Time;durP1;ratioP1;P1;durP2;ratioP2;P2;SDS_P1;SDS_P2;PMS_P1;PMS_P2;Temp;Humidity;BMP_temperature;BMP_pressure;BME280_temperature;BME280_humidity;BME280_pressure;Samples;Min_cycle;Max_cycle;Signal;HPM_P1;HPM_P2
2022/01/25 00:09:05;;;;;;;;;91.00;68.50;;;;;3.22;69.51;102935.25;5077180;28;45255;-44
2022/01/25 00:25:29;;;;;;;;;89.50;65.00;;;;;2.91;68.70;102938.78;5080306;28;45344;-45
2022/01/25 00:28:16;;;;;;;;;83.00;63.00;;;;;2.84;69.47;102926.72;5080513;28;45219;-46
2022/01/25 00:30:58;;;;;;;;;84.50;63.25;;;;;2.77;69.06;102938.31;5080291;28;45603;-52
2022/01/25 00:33:24;;;;;;;;;93.33;69.00;;;;;2.74;69.66;102930.53;5080016;28;46239;-45
2022/01/25 00:35:49;;;;;;;;;87.25;64.00;;;;;2.68;69.06;102947.31;5080164;28;45468;-50
2022/01/25 00:38:14;;;;;;;;;89.50;63.00;;;;;2.66;68.90;102945.63;5079983;28;45412;-46
2022/01/25 00:40:40;;;;;;;;;85.50;61.00;;;;;2.63;69.03;102943.09;5080376;28;45414;-46
2022/01/25 00:43:05;;;;;;;;;75.25;55.25;;;;;2.56;68.79;102950.25;5079774;28;46011;-49
2022/01/25 00:45:33;;;;;;;;;82.25;58.25;;;;;2.44;69.13;102942.69;5079873;28;45398;-48
2022/01/25 00:48:02;;;;;;;;;80.75;60.50;;;;;2.36;69.36;102949.91;5080109;28;45330;-50
2022/01/25 00:50:31;;;;;;;;;77.25;58.25;;;;;2.31;69.27;102943.94;5080179;28;45240;-45
2022/01/25 00:55:23;;;;;;;;;84.25;54.25;;;;;2.02;70.56;102947.28;5079942;28;45254;-47
2022/01/25 00:57:48;;;;;;;;;66.75;50.75;;;;;1.95;70.48;102936.94;5061850;28;45355;-46
2022/01/25 01:00:14;;;;;;;;;73.50;53.00;;;;;1.99;70.15;102941.22;5079945;28;45369;-47
2022/01/25 01:02:39;;;;;;;;;65.00;50.00;;;;;1.92;70.17;102926.50;5079489;28;46191;-47
2022/01/25 01:05:05;;;;;;;;;62.25;50.25;;;;;1.92;70.57;102938.78;5079740;28;45408;-44
2022/01/25 01:07:30;;;;;;;;;75.00;53.00;;;;;1.87;71.12;102932.78;5079655;28;45330;-47
2022/01/25 01:09:58;;;;;;;;;69.50;52.00;;;;;1.82;70.88;102937.28;5080254;28;45312;-46
2022/01/25 01:15:27;;;;;;;;;67.00;52.00;;;;;1.74;71.79;102942.72;5079638;28;45401;-48
2022/01/25 01:34:27;;;;;;;;;69.50;51.00;;;;;1.81;71.54;102939.00;5079685;28;45323;-52
2022/01/25 01:37:18;;;;;;;;;57.25;48.00;;;;;1.75;71.28;102947.06;5079189;28;45217;-48
2022/01/25 01:47:35;;;;;;;;;67.25;48.00;;;;;1.75;70.92;102937.41;5079163;28;45403;-46
2022/01/25 01:50:08;;;;;;;;;66.75;48.00;;;;;1.75;71.66;102942.66;5079082;28;45396;-47
2022/01/25 01:52:33;;;;;;;;;63.75;49.50;;;;;1.88;71.34;102950.25;5079324;28;45346;-46
2022/01/25 01:54:59;;;;;;;;;54.50;46.50;;;;;1.88;71.06;102952.88;5078901;28;45985;-48
2022/01/25 01:57:24;;;;;;;;;59.00;47.50;;;;;1.89;71.27;102955.44;5060424;28;45551;-44
2022/01/25 01:59:49;;;;;;;;;72.75;53.50;;;;;1.87;71.70;102953.78;5078927;28;45882;-48
2022/01/25 02:02:15;;;;;;;;;68.25;48.25;;;;;1.85;71.78;102950.31;5094766;27;45263;-48
2022/01/25 02:04:40;;;;;;;;;65.25;47.00;;;;;1.86;71.29;102955.53;5078719;28;45965;-45
2022/01/25 02:07:05;;;;;;;;;63.25;48.00;;;;;1.88;71.18;102951.09;5077802;28;45291;-48
2022/01/25 02:09:32;;;;;;;;;59.00;44.75;;;;;1.87;71.59;102956.41;5078784;28;45476;-48
2022/01/25 02:11:58;;;;;;;;;62.25;46.75;;;;;1.84;71.58;102954.69;5078963;28;45418;-46
2022/01/25 02:14:23;;;;;;;;;32.00;17.25;;;;;1.89;71.73;102957.22;5078428;28;45947;-47
2022/01/25 02:24:45;;;;;;;;;59.00;43.50;;;;;1.99;70.87;102962.22;5078242;28;45177;-46
2022/01/25 02:27:10;;;;;;;;;55.25;43.75;;;;;1.92;71.08;102955.38;5078440;28;45214;-45
2022/01/25 02:29:36;;;;;;;;;48.75;42.50;;;;;1.94;71.88;102950.97;5078380;28;45279;-45
2022/01/25 02:32:02;;;;;;;;;46.50;40.00;;;;;1.90;72.00;102961.59;5078624;28;45386;-45
2022/01/25 02:34:28;;;;;;;;;64.25;46.25;;;;;1.89;72.25;102951.97;5078063;28;46285;-51
2022/01/25 02:37:01;;;;;;;;;54.00;40.75;;;;;2.01;71.51;102956.91;5077051;28;45407;-46
2022/01/25 02:39:28;;;;;;;;;55.75;43.25;;;;;2.03;71.65;102956.91;5078126;28;45417;-45
2022/01/25 02:41:54;;;;;;;;;52.50;39.00;;;;;1.93;72.10;102940.50;5078283;28;45401;-48
2022/01/25 02:44:25;;;;;;;;;58.50;44.50;;;;;2.08;71.44;102957.66;5077914;28;47056;-45
2022/01/25 02:49:17;;;;;;;;;70.50;48.25;;;;;2.03;72.31;102957.75;5078166;28;45296;-59
2022/01/25 02:51:47;;;;;;;;;63.75;49.00;;;;;1.99;71.87;102956.09;5078218;28;45280;-46
2022/01/25 02:54:14;;;;;;;;;65.75;45.00;;;;;2.05;72.25;102952.47;5077985;28;46281;-45
2022/01/25 02:56:43;;;;;;;;;49.00;37.25;;;;;2.18;71.90;102956.50;5077847;28;45419;-46
2022/01/25 02:59:09;;;;;;;;;55.75;41.75;;;;;2.23;71.65;102958.13;5078106;28;45556;-46
2022/01/25 03:01:36;;;;;;;;;72.75;43.25;;;;;2.14;71.24;102963.59;5078211;28;45307;-45
2022/01/25 03:04:03;;;;;;;;;45.75;41.25;;;;;2.10;71.50;102956.69;5059494;28;47156;-45
2022/01/25 03:06:29;;;;;;;;;61.25;41.75;;;;;2.10;71.79;102950.56;5077958;28;45216;-46
2022/01/25 03:08:55;;;;;;;;;57.25;43.00;;;;;2.09;71.50;102954.13;5077765;28;45216;-44
2022/01/25 03:11:22;;;;;;;;;61.25;40.50;;;;;2.06;71.65;102955.03;5078098;28;45289;-48
2022/01/25 03:13:54;;;;;;;;;53.00;43.50;;;;;2.08;71.84;102963.75;5077674;28;46117;-45
2022/01/25 03:19:02;;;;;;;;;47.25;39.75;;;;;2.04;71.63;102943.72;5077802;28;45192;-46
2022/01/25 03:21:36;;;;;;;;;43.75;34.50;;;;;2.13;71.48;102961.88;5077955;28;45490;-48
2022/01/25 03:24:04;;;;;;;;;61.50;41.50;;;;;2.09;71.34;102957.59;5077359;28;47097;-48
2022/01/25 03:26:30;;;;;;;;;63.50;42.75;;;;;2.09;71.11;102952.34;5077445;28;45473;-48
2022/01/25 03:28:55;;;;;;;;;63.50;43.75;;;;;2.06;71.74;102943.69;5077820;28;45339;-48
2022/01/25 03:31:21;;;;;;;;;66.75;38.25;;;;;2.04;71.85;102946.34;5077535;28;45446;-47
2022/01/25 03:33:46;;;;;;;;;43.00;39.00;;;;;2.07;71.85;102945.44;5077180;28;46115;-46
2022/01/25 03:36:13;;;;;;;;;50.00;39.50;;;;;1.98;71.85;102946.47;5077361;28;45311;-46
2022/01/25 03:38:40;;;;;;;;;52.25;39.50;;;;;1.96;71.97;102943.91;5077305;28;45354;-47
2022/01/25 03:41:09;;;;;;;;;50.00;36.75;;;;;2.02;71.96;102949.91;5077513;28;45307;-46
2022/01/25 03:43:36;;;;;;;;;45.25;35.00;;;;;1.94;71.97;102945.72;5076805;28;45244;-44
2022/01/25 03:46:14;;;;;;;;;59.50;43.00;;;;;1.93;72.46;102941.34;5076024;28;45941;-45
2022/01/25 03:51:23;;;;;;;;;48.50;45.00;;;;;2.01;72.41;102933.28;5081298;28;45216;-52
2022/01/25 03:53:48;;;;;;;;;56.75;43.50;;;;;1.98;72.21;102929.00;5080512;28;46219;-47
2022/01/25 03:56:14;;;;;;;;;42.25;37.50;;;;;1.98;72.25;102923.75;5080687;28;45431;-46
2022/01/25 03:58:39;;;;;;;;;54.00;39.25;;;;;2.03;72.34;102922.78;5080852;28;45385;-46
2022/01/25 04:01:05;;;;;;;;;55.00;39.50;;;;;2.07;71.82;102933.16;5081219;28;45388;-49
2022/01/25 04:03:37;;;;;;;;;49.75;39.00;;;;;2.10;71.80;102924.31;5096492;27;46276;-48
2022/01/25 04:06:04;;;;;;;;;44.75;35.50;;;;;2.09;71.17;102920.84;5080594;28;45382;-45
2022/01/25 04:08:29;;;;;;;;;50.00;35.75;;;;;2.07;71.70;102917.41;5080375;28;45259;-47
2022/01/25 04:10:55;;;;;;;;;40.75;34.75;;;;;1.99;72.05;102906.22;5080906;28;45340;-49
2022/01/25 04:13:20;;;;;;;;;54.00;38.00;;;;;2.02;71.96;102931.53;5096310;27;45407;-45
2022/01/25 04:15:46;;;;;;;;;48.75;39.25;;;;;2.03;71.90;102931.50;5080715;28;45413;-45
2022/01/25 04:20:56;;;;;;;;;55.50;39.25;;;;;1.99;71.75;102937.72;5080845;28;45322;-47
2022/01/25 04:26:05;;;;;;;;;53.25;41.50;;;;;1.95;71.87;102934.31;5080554;28;45256;-46
2022/01/25 04:28:31;;;;;;;;;58.75;33.25;;;;;1.98;71.91;102943.88;5080701;28;45386;-46
2022/01/25 04:30:56;;;;;;;;;49.00;38.25;;;;;1.94;72.48;102942.25;5080789;28;45283;-46
2022/01/25 04:33:28;;;;;;;;;57.00;39.75;;;;;1.90;72.66;102940.59;5080246;28;47292;-47
2022/01/25 04:36:27;;;;;;;;;58.00;42.75;;;;;1.94;72.88;102942.25;5079989;28;45397;-47
2022/01/25 04:49:53;;;;;;;;;56.50;40.25;;;;;2.08;72.62;102947.16;5079981;28;45350;-46
2022/01/25 04:52:21;;;;;;;;;66.50;42.75;;;;;2.07;73.10;102954.16;5080166;28;45457;-47
2022/01/25 04:55:00;;;;;;;;;50.50;37.25;;;;;2.06;72.61;102939.28;5079886;28;46179;-47
2022/01/25 04:57:40;;;;;;;;;60.25;45.25;;;;;2.17;72.47;102944.28;5079973;28;45310;-53
2022/01/25 05:00:20;;;;;;;;;58.75;43.00;;;;;2.22;72.21;102952.91;5078966;28;45438;-45
2022/01/25 05:08:36;;;;;;;;;54.00;44.50;;;;;2.25;72.39;102935.31;5037018;28;45551;-46
2022/01/25 05:11:23;;;;;;;;;49.50;43.50;;;;;2.25;72.43;102948.44;5036991;28;45451;-51
2022/01/25 05:14:24;;;;;;;;;57.25;45.50;;;;;2.17;72.70;102946.91;5037136;28;45442;-48
2022/01/25 05:16:49;;;;;;;;;73.00;49.50;;;;;2.25;72.67;102952.84;5035725;28;46684;-47
2022/01/25 05:24:30;;;;;;;;;51.25;45.75;;;;;2.38;72.38;102938.47;5036810;28;45359;-45
2022/01/25 05:26:55;;;;;;;;;59.00;42.25;;;;;2.49;72.22;102948.72;5036799;28;47093;-44
2022/01/25 05:29:21;;;;;;;;;65.50;47.50;;;;;2.56;72.21;102936.25;5037014;28;45448;-44
2022/01/25 05:31:46;;;;;;;;;59.75;49.50;;;;;2.62;72.25;102946.63;5037113;28;45798;-44
2022/01/25 05:34:12;;;;;;;;;59.25;45.50;;;;;2.68;71.83;102947.31;5020176;28;45429;-44
2022/01/25 05:36:39;;;;;;;;;60.50;46.50;;;;;2.74;71.61;102946.28;5036551;28;45396;-45
2022/01/25 05:39:11;;;;;;;;;51.75;36.00;;;;;2.71;71.60;102943.75;5045638;28;45420;-45
2022/01/25 05:41:37;;;;;;;;;59.00;46.00;;;;;2.79;71.52;102943.53;5079179;28;45379;-45
2022/01/25 05:46:41;;;;;;;;;63.00;47.50;;;;;2.84;71.41;102957.41;5078886;28;45447;-46
2022/01/25 05:49:07;;;;;;;;;68.75;49.25;;;;;2.84;71.26;102958.25;5079002;28;45453;-46
2022/01/25 05:51:32;;;;;;;;;68.50;48.25;;;;;2.85;71.79;102959.97;5079041;28;45321;-47
2022/01/25 05:53:58;;;;;;;;;60.75;46.00;;;;;2.83;71.44;102958.31;5078975;28;45447;-47
2022/01/25 05:56:23;;;;;;;;;66.25;48.00;;;;;2.81;71.36;102954.84;5078691;28;47109;-45
2022/01/25 05:58:48;;;;;;;;;70.50;51.00;;;;;2.83;71.28;102960.94;5078640;28;45427;-46
2022/01/25 06:01:14;;;;;;;;;67.50;51.75;;;;;2.77;71.68;102959.31;5078837;28;45880;-46
2022/01/25 06:03:41;;;;;;;;;71.75;48.50;;;;;2.75;71.75;102955.91;5079027;28;45559;-47
2022/01/25 06:06:07;;;;;;;;;70.25;52.00;;;;;2.72;71.96;102954.19;5078508;28;45445;-45
2022/01/25 06:08:32;;;;;;;;;65.50;47.00;;;;;2.69;72.26;102949.03;5079000;28;45178;-43
2022/01/25 06:10:58;;;;;;;;;57.00;47.50;;;;;2.65;72.25;102949.16;5078393;28;45161;-45
2022/01/25 06:13:23;;;;;;;;;67.75;49.00;;;;;2.57;72.67;102949.38;5078820;28;45200;-47
2022/01/25 06:15:48;;;;;;;;;71.75;51.00;;;;;2.62;72.21;102946.63;5078517;28;47074;-44
2022/01/25 06:18:15;;;;;;;;;47.25;44.75;;;;;2.62;71.93;102941.38;5078439;28;45371;-43
2022/01/25 06:20:40;;;;;;;;;60.00;42.75;;;;;2.65;72.66;102947.38;5078681;28;45335;-46
2022/01/25 06:23:06;;;;;;;;;65.00;48.50;;;;;2.67;72.64;102948.22;5078507;28;45385;-52
2022/01/25 06:25:31;;;;;;;;;75.00;50.25;;;;;2.71;72.92;102949.84;5078195;28;46002;-43
2022/01/25 06:27:56;;;;;;;;;66.00;46.25;;;;;2.77;72.31;102940.06;5078406;28;45449;-51
2022/01/25 06:30:22;;;;;;;;;63.75;50.50;;;;;2.73;72.46;102939.28;5078349;28;45445;-54
2022/01/25 06:32:48;;;;;;;;;67.00;49.00;;;;;2.88;72.29;102961.69;5078581;28;45299;-47
2022/01/25 06:35:15;;;;;;;;;74.75;49.00;;;;;2.88;72.14;102953.78;5078078;28;46367;-48
2022/01/25 06:37:40;;;;;;;;;64.75;47.00;;;;;2.92;72.09;102955.44;5078245;28;45429;-60
2022/01/25 06:40:07;;;;;;;;;69.75;48.00;;;;;2.93;71.74;102955.38;5077961;28;45365;-45
2022/01/25 06:42:35;;;;;;;;;56.75;46.00;;;;;2.96;71.87;102957.91;5093844;27;45350;-46
2022/01/25 06:45:03;;;;;;;;;62.00;48.25;;;;;3.01;72.23;102944.66;5078044;28;46142;-47
2022/01/25 06:47:30;;;;;;;;;68.50;48.00;;;;;2.97;71.96;102943.88;5078149;28;45383;-45
2022/01/25 06:49:56;;;;;;;;;73.25;49.00;;;;;3.03;72.18;102952.47;5077968;28;45278;-44
2022/01/25 06:52:21;;;;;;;;;67.75;49.00;;;;;3.01;71.89;102944.66;5078398;28;45216;-46
2022/01/25 06:54:47;;;;;;;;;64.75;48.00;;;;;3.05;72.23;102948.91;5077851;28;45239;-46
2022/01/25 06:57:13;;;;;;;;;63.75;51.00;;;;;3.09;72.21;102942.66;5077843;28;45224;-45
2022/01/25 06:59:38;;;;;;;;;72.00;52.50;;;;;3.06;71.48;102940.09;5078134;28;45243;-47
2022/01/25 07:02:05;;;;;;;;;68.25;48.50;;;;;3.10;71.29;102949.63;5078038;28;45332;-49
2022/01/25 07:04:30;;;;;;;;;69.50;47.50;;;;;3.06;71.99;102955.03;5076387;28;46206;-45
2022/01/25 07:06:55;;;;;;;;;74.00;51.50;;;;;3.04;71.59;102954.22;5077789;28;45330;-51
2022/01/25 07:09:21;;;;;;;;;72.25;52.25;;;;;3.02;71.79;102953.38;5077806;28;45377;-46
2022/01/25 07:11:47;;;;;;;;;61.50;49.25;;;;;2.98;72.11;102956.09;5077801;28;45279;-47
2022/01/25 07:14:12;;;;;;;;;69.25;49.00;;;;;2.92;72.19;102955.44;5077682;28;45521;-44
2022/01/25 07:16:38;;;;;;;;;74.25;56.75;;;;;2.96;72.26;102954.44;5077379;28;45309;-49
2022/01/25 07:19:03;;;;;;;;;64.25;49.00;;;;;2.97;72.49;102959.63;5077638;28;45445;-46
2022/01/25 07:21:29;;;;;;;;;69.00;48.75;;;;;3.00;71.71;102954.31;5078031;28;45339;-48
2022/01/25 07:23:54;;;;;;;;;65.00;47.50;;;;;3.02;72.47;102956.03;5076882;28;46003;-45
2022/01/25 07:26:19;;;;;;;;;70.75;48.75;;;;;3.05;72.39;102961.19;5077199;28;45373;-47
2022/01/25 07:28:45;;;;;;;;;67.25;52.00;;;;;3.03;72.18;102965.63;5077422;28;45489;-47
2022/01/25 07:31:10;;;;;;;;;61.00;48.00;;;;;3.02;72.71;102975.28;5093458;27;45346;-45
2022/01/25 07:33:36;;;;;;;;;72.25;54.50;;;;;2.95;72.48;102973.72;5077107;28;47140;-46
2022/01/25 07:36:01;;;;;;;;;73.75;52.00;;;;;2.88;73.22;102972.19;5077304;28;45283;-44
2022/01/25 07:38:27;;;;;;;;;68.50;47.75;;;;;2.87;73.25;102984.47;5077374;28;45346;-46
2022/01/25 07:40:52;;;;;;;;;67.25;50.75;;;;;2.83;73.09;102984.59;5077374;28;45455;-47
2022/01/25 07:43:18;;;;;;;;;68.00;52.50;;;;;2.77;73.29;102976.88;5077098;28;45990;-43
2022/01/25 07:45:50;;;;;;;;;70.00;49.00;;;;;2.69;73.64;102964.78;5077262;28;45215;-46
2022/01/25 07:48:15;;;;;;;;;73.50;52.00;;;;;2.81;73.41;102979.38;5092343;27;45323;-46
2022/01/25 07:50:40;;;;;;;;;71.75;52.00;;;;;2.83;73.05;102980.22;5077349;28;45286;-45
2022/01/25 07:53:06;;;;;;;;;57.50;48.00;;;;;2.71;73.27;102975.28;5076762;28;45274;-48
2022/01/25 07:55:31;;;;;;;;;67.25;49.50;;;;;2.79;73.70;102990.84;5077149;28;45452;-46
2022/01/25 07:57:57;;;;;;;;;68.75;49.00;;;;;2.83;73.51;102992.50;5077268;28;45476;-44
2022/01/25 08:00:22;;;;;;;;;81.50;53.50;;;;;2.81;73.41;102994.28;5077518;27;45200;-47
2022/01/25 08:02:48;;;;;;;;;65.50;49.00;;;;;2.77;73.43;103000.53;5077298;28;47104;-47
2022/01/25 08:05:16;;;;;;;;;67.25;50.75;;;;;2.73;73.77;102992.72;5076973;28;45389;-46
2022/01/25 08:07:42;;;;;;;;;69.00;49.00;;;;;2.72;73.50;102991.00;5077479;28;45410;-46
2022/01/25 08:10:08;;;;;;;;;67.00;53.00;;;;;2.77;74.10;102993.50;5077639;28;45422;-44
2022/01/25 08:12:34;;;;;;;;;69.50;54.00;;;;;2.75;73.44;103000.56;5076905;28;46205;-53
2022/01/25 08:15:00;;;;;;;;;62.50;47.75;;;;;2.71;73.57;103002.41;5077062;28;45255;-46
2022/01/25 08:17:25;;;;;;;;;69.00;52.25;;;;;2.70;73.29;102997.22;5077270;28;45215;-45
2022/01/25 08:19:51;;;;;;;;;69.75;47.50;;;;;2.76;73.29;103007.56;5077291;28;45417;-44
2022/01/25 08:22:18;;;;;;;;;68.50;49.75;;;;;2.79;73.47;103010.09;5076645;28;45591;-46
2022/01/25 08:24:44;;;;;;;;;71.50;52.25;;;;;2.73;73.76;103003.22;5076723;28;45299;-47
2022/01/25 08:27:10;;;;;;;;;76.25;54.00;;;;;2.74;73.75;103009.38;5076697;28;45482;-45
2022/01/25 08:29:35;;;;;;;;;63.00;45.75;;;;;2.70;73.78;103008.59;5077067;28;45280;-44
2022/01/25 08:32:00;;;;;;;;;66.00;49.00;;;;;2.65;73.77;103005.19;5076569;28;46164;-45
2022/01/25 08:34:26;;;;;;;;;76.50;50.50;;;;;2.69;73.59;103016.50;5076577;28;45350;-46
2022/01/25 08:36:51;;;;;;;;;66.50;49.50;;;;;2.67;74.02;103011.28;5079802;28;45444;-47
2022/01/25 08:39:16;;;;;;;;;66.00;48.00;;;;;2.70;73.69;103013.84;5080214;28;45332;-47
2022/01/25 08:41:43;;;;;;;;;65.25;43.25;;;;;2.74;73.24;103007.59;5079058;28;45533;-48
2022/01/25 08:44:08;;;;;;;;;66.50;48.50;;;;;2.77;73.46;103009.25;5078046;28;45373;-47
2022/01/25 08:46:34;;;;;;;;;58.50;46.50;;;;;2.76;73.77;102991.78;5093736;27;45399;-45
2022/01/25 08:48:59;;;;;;;;;77.00;54.00;;;;;2.72;73.29;102980.47;5099619;27;45785;-47
2022/01/25 08:51:25;;;;;;;;;69.75;53.50;;;;;2.89;73.84;103002.81;5098700;27;46362;-49
2022/01/25 08:53:51;;;;;;;;;73.25;52.00;;;;;2.85;73.40;103001.19;5098874;27;45177;-50
2022/01/25 08:56:16;;;;;;;;;70.25;49.50;;;;;2.85;73.67;102998.56;5098815;27;45274;-44
2022/01/25 08:58:42;;;;;;;;;68.25;49.25;;;;;2.88;73.42;102998.47;5099278;27;45358;-46
2022/01/25 09:01:07;;;;;;;;;71.75;49.50;;;;;2.84;73.75;103009.97;5081083;27;46056;-45
2022/01/25 09:03:33;;;;;;;;;67.50;50.25;;;;;2.73;73.24;102992.72;5099068;27;45258;-46
2022/01/25 09:05:58;;;;;;;;;73.00;57.00;;;;;2.80;73.88;103006.56;5099622;27;45779;-50
2022/01/25 09:08:27;;;;;;;;;71.75;55.00;;;;;2.81;73.10;103005.66;5099210;27;45181;-45
2022/01/25 09:10:57;;;;;;;;;65.00;38.75;;;;;2.86;73.44;103013.41;5098760;27;45447;-45
2022/01/25 09:13:23;;;;;;;;;73.25;52.00;;;;;2.87;73.42;103020.41;5099071;27;45344;-44
2022/01/25 09:15:49;;;;;;;;;77.75;53.50;;;;;2.86;73.47;103021.28;5099257;27;45234;-45
2022/01/25 09:18:14;;;;;;;;;63.25;49.00;;;;;2.91;73.15;103022.91;5099117;27;45686;-46
2022/01/25 09:20:40;;;;;;;;;67.25;49.00;;;;;2.86;72.77;103018.66;5099189;27;46034;-45
2022/01/25 09:23:05;;;;;;;;;69.25;49.00;;;;;2.81;73.10;103013.53;5098583;27;45427;-46
2022/01/25 09:25:32;;;;;;;;;66.25;48.00;;;;;2.76;73.39;103012.81;5098922;27;45263;-47
2022/01/25 09:27:58;;;;;;;;;72.25;48.00;;;;;2.81;73.34;103024.06;5099076;27;45495;-47
2022/01/25 09:30:23;;;;;;;;;69.75;48.50;;;;;2.78;73.36;103021.50;5098842;27;47194;-47
2022/01/25 09:32:49;;;;;;;;;44.75;38.75;;;;;2.88;73.36;103024.75;5099180;27;45435;-48
2022/01/25 09:35:15;;;;;;;;;74.50;53.50;;;;;2.94;73.52;103028.06;5099439;27;45410;-48
2022/01/25 09:37:40;;;;;;;;;74.00;52.00;;;;;3.02;72.97;103025.25;5099540;27;45400;-47
2022/01/25 09:40:07;;;;;;;;;65.75;49.75;;;;;3.08;72.96;103032.97;5098548;27;45354;-45
2022/01/25 09:42:32;;;;;;;;;69.75;48.75;;;;;3.11;72.46;103035.50;5098019;27;45446;-47
2022/01/25 09:44:59;;;;;;;;;71.00;56.50;;;;;3.10;72.60;103035.56;5098461;27;45620;-47
2022/01/25 09:47:24;;;;;;;;;76.00;53.00;;;;;3.02;72.41;103017.34;5098296;27;45374;-46
2022/01/25 09:49:50;;;;;;;;;65.00;48.75;;;;;3.06;72.41;103040.03;5098291;27;45461;-47
2022/01/25 09:52:17;;;;;;;;;72.75;49.00;;;;;3.02;72.82;103032.28;5098122;27;45408;-47
2022/01/25 09:54:53;;;;;;;;;74.00;49.00;;;;;3.04;72.78;103036.59;5098446;27;45526;-47
2022/01/25 09:57:19;;;;;;;;;70.00;53.00;;;;;3.04;72.58;103039.22;5098508;27;45361;-47
2022/01/25 09:59:44;;;;;;;;;72.50;51.75;;;;;3.09;72.86;103039.97;5097154;27;46236;-46
2022/01/25 10:02:09;;;;;;;;;69.25;52.00;;;;;3.08;73.08;103047.91;5099046;27;45349;-44
2022/01/25 10:04:39;;;;;;;;;63.00;51.00;;;;;3.09;72.66;103042.59;5099228;27;45790;-44
2022/01/25 10:07:05;;;;;;;;;64.50;49.00;;;;;3.15;72.41;103042.41;5097545;27;45386;-46
2022/01/25 10:09:32;;;;;;;;;65.75;46.75;;;;;3.18;72.27;103037.06;5097875;27;46214;-46
2022/01/25 10:12:16;;;;;;;;;78.50;57.75;;;;;3.25;72.45;103043.03;5097833;27;45456;-44
2022/01/25 10:15:00;;;;;;;;;70.25;50.25;;;;;3.30;72.22;103049.03;5097972;27;45345;-46
2022/01/25 10:17:33;;;;;;;;;72.25;48.75;;;;;3.39;71.85;103034.75;5097392;27;45526;-44
2022/01/25 10:19:58;;;;;;;;;59.25;47.00;;;;;3.41;72.01;103032.91;5096397;27;45604;-49
2022/01/25 10:22:24;;;;;;;;;75.25;48.25;;;;;3.48;72.07;103043.22;5097296;27;45242;-47
2022/01/25 10:24:49;;;;;;;;;66.75;49.75;;;;;3.49;71.89;103039.66;5097686;27;45236;-46
2022/01/25 10:27:15;;;;;;;;;71.50;48.50;;;;;3.49;71.42;103050.19;5098547;27;45534;-45
2022/01/25 10:29:41;;;;;;;;;65.50;48.75;;;;;3.40;71.27;103033.81;5097694;27;46322;-45
2022/01/25 10:32:16;;;;;;;;;73.25;48.75;;;;;3.45;71.19;103047.69;5097557;27;45386;-43
2022/01/25 10:34:49;;;;;;;;;67.75;49.25;;;;;3.45;71.22;103045.94;5097656;27;45476;-48
2022/01/25 10:37:24;;;;;;;;;76.50;52.75;;;;;3.37;71.63;103036.53;5080145;27;45485;-45
2022/01/25 10:39:52;;;;;;;;;72.75;52.50;;;;;3.50;71.64;103049.31;5079082;27;46008;-45
2022/01/25 10:42:25;;;;;;;;;61.00;49.00;;;;;3.56;71.81;103047.41;5097442;27;45512;-45
2022/01/25 10:45:04;;;;;;;;;71.50;48.00;;;;;3.57;71.61;103044.72;5097903;27;45388;-48
2022/01/25 10:47:50;;;;;;;;;50.00;43.00;;;;;3.67;71.88;103050.59;5098195;27;45447;-45
2022/01/25 10:50:22;;;;;;;;;58.00;43.75;;;;;3.69;71.21;103057.50;5097731;27;45600;-46
2022/01/25 10:53:05;;;;;;;;;70.00;46.75;;;;;3.72;71.49;103052.16;5097178;27;45459;-47
2022/01/25 10:55:38;;;;;;;;;68.50;49.75;;;;;3.74;70.37;103047.69;5097299;27;45722;-52
2022/01/25 10:58:04;;;;;;;;;70.00;50.50;;;;;3.80;70.96;103056.34;5096399;27;45371;-47
2022/01/25 11:00:36;;;;;;;;;66.25;48.75;;;;;3.81;70.36;103047.53;5098135;27;46177;-48
2022/01/25 11:03:04;;;;;;;;;72.50;49.00;;;;;3.81;71.08;103042.28;5097948;27;45414;-45
2022/01/25 11:05:32;;;;;;;;;70.25;51.25;;;;;3.84;70.06;103040.41;5098441;27;45458;-43
2022/01/25 11:08:12;;;;;;;;;73.50;48.25;;;;;3.89;70.89;103045.53;5098497;27;45315;-45
2022/01/25 11:10:46;;;;;;;;;69.75;48.50;;;;;3.93;71.10;103044.53;5097684;27;45343;-46
2022/01/25 11:13:23;;;;;;;;;69.75;49.50;;;;;3.87;69.98;103031.53;5097644;27;45212;-46
2022/01/25 11:15:49;;;;;;;;;72.25;49.00;;;;;3.99;69.93;103036.44;5097620;27;45335;-46
2022/01/25 11:18:14;;;;;;;;;67.00;50.25;;;;;3.98;70.69;103022.41;5098295;27;45370;-47
2022/01/25 11:20:40;;;;;;;;;67.00;51.00;;;;;4.14;69.52;103033.31;5096565;27;46111;-48
2022/01/25 11:23:06;;;;;;;;;67.50;49.50;;;;;4.15;69.64;103042.09;5097796;27;45487;-47
2022/01/25 11:25:32;;;;;;;;;63.50;51.75;;;;;4.09;69.95;103032.63;5097949;27;45359;-46
2022/01/25 11:27:58;;;;;;;;;66.75;48.50;;;;;4.14;69.93;103048.28;5097871;27;45467;-56
2022/01/25 11:30:24;;;;;;;;;71.75;51.75;;;;;4.15;68.92;103036.81;5097820;27;46061;-52
2022/01/25 11:32:50;;;;;;;;;76.00;52.00;;;;;4.14;69.27;103035.09;5097623;27;45335;-50
2022/01/25 11:35:20;;;;;;;;;73.25;47.25;;;;;4.12;69.90;103042.16;5097798;27;45422;-50
2022/01/25 11:37:47;;;;;;;;;73.50;52.50;;;;;4.10;69.03;103044.00;5097716;27;45454;-52
2022/01/25 11:40:20;;;;;;;;;69.50;48.25;;;;;4.05;69.42;103041.53;5097366;27;45507;-51
2022/01/25 11:42:48;;;;;;;;;69.75;47.75;;;;;4.07;70.13;103038.81;5097320;27;45386;-50
2022/01/25 11:45:14;;;;;;;;;75.75;53.25;;;;;4.08;69.72;103040.53;5097517;27;45456;-51
2022/01/25 11:47:39;;;;;;;;;77.00;53.75;;;;;4.09;70.20;103037.88;5097599;27;45394;-51
2022/01/25 11:50:09;;;;;;;;;76.75;52.00;;;;;4.05;69.52;103040.66;5097098;27;46222;-48
2022/01/25 11:52:35;;;;;;;;;70.75;51.75;;;;;4.04;69.89;103038.91;5097106;27;45319;-50
2022/01/25 11:55:20;;;;;;;;;70.75;54.50;;;;;3.93;69.94;103018.19;5097366;27;45543;-48
2022/01/25 11:57:55;;;;;;;;;68.75;51.25;;;;;4.06;69.42;103032.69;5096148;27;45434;-49
2022/01/25 12:00:36;;;;;;;;;73.50;50.75;;;;;4.11;70.48;103030.78;5097242;27;45540;-49
2022/01/25 12:03:18;;;;;;;;;70.00;53.75;;;;;4.11;70.11;103011.47;5097128;27;45251;-49
2022/01/25 12:06:02;;;;;;;;;85.00;55.00;;;;;4.15;70.09;103021.88;5097146;27;45442;-49
2022/01/25 12:08:50;;;;;;;;;78.75;57.50;;;;;4.11;69.41;103003.56;5097325;27;45394;-48
2022/01/25 12:11:38;;;;;;;;;79.75;56.75;;;;;4.26;70.05;103024.16;5100600;27;47079;-50
2022/01/25 12:14:23;;;;;;;;;78.00;56.50;;;;;4.28;68.99;103029.38;5100687;27;45404;-49
2022/01/25 12:17:02;;;;;;;;;83.75;56.50;;;;;4.31;70.14;103032.78;5100854;27;45309;-49
2022/01/25 12:19:30;;;;;;;;;76.25;54.00;;;;;4.31;68.81;103024.00;5100129;27;45430;-50
2022/01/25 12:21:59;;;;;;;;;75.00;51.25;;;;;4.32;69.67;103016.06;5100474;27;46144;-47
2022/01/25 12:24:50;;;;;;;;;75.75;52.50;;;;;4.35;69.28;103015.09;5100402;27;45305;-50
2022/01/25 12:27:22;;;;;;;;;76.50;54.50;;;;;4.47;69.24;103006.78;5100759;27;45334;-48
2022/01/25 12:30:26;;;;;;;;;80.00;54.75;;;;;4.54;69.68;103003.00;5100631;27;45449;-51
2022/01/25 12:33:00;;;;;;;;;75.25;52.50;;;;;4.58;69.57;102998.50;5077917;28;45439;-51
2022/01/25 12:35:39;;;;;;;;;81.00;57.25;;;;;4.56;68.71;102993.28;5077432;28;45494;-50
2022/01/25 12:38:11;;;;;;;;;79.50;57.50;;;;;4.61;68.72;103001.03;5077730;28;45485;-48
2022/01/25 12:41:01;;;;;;;;;71.25;54.00;;;;;4.68;69.54;102998.13;5077235;28;45470;-54
2022/01/25 12:43:30;;;;;;;;;81.50;58.00;;;;;4.73;69.35;102992.69;5036368;28;47016;-50
2022/01/25 12:45:59;;;;;;;;;71.75;54.75;;;;;4.60;68.69;102987.00;5036531;28;45609;-50
2022/01/25 12:48:29;;;;;;;;;78.00;55.00;;;;;4.55;69.33;102995.97;5036337;28;45435;-48
2022/01/25 12:50:58;;;;;;;;;87.75;58.75;;;;;4.56;69.04;102989.78;5036637;28;45600;-47
2022/01/25 12:53:28;;;;;;;;;83.25;57.25;;;;;4.55;68.63;102983.66;5036381;28;46217;-47
2022/01/25 12:55:59;;;;;;;;;78.75;52.00;;;;;4.58;69.68;102985.31;5036200;28;45460;-49
2022/01/25 12:58:28;;;;;;;;;80.00;58.25;;;;;4.61;68.90;102986.06;5036441;28;45495;-47
2022/01/25 13:00:57;;;;;;;;;74.25;53.00;;;;;4.57;69.12;102979.19;5036353;28;45479;-48